Terminal Aerodrome Forecast
Issued by NWS

Home | Current Version | Previous Version | Text Only | Print | Product List | Glossary On
Versions: 1 2 3 4 5 6 7 8 9 10 11 12 13 14 15
000
FTUS43 KICT 291700
TAFSLN
TAF
KSLN 291739Z 2918/3018 VRB05KT P6SM BKN070
     FM300200 09007KT P6SM SCT070
     FM300800 09007KT P6SM VCSH SCT040 OVC070
     FM301400 09007KT P6SM SCT040 OVC070=

USA.gov is the U.S. government's official web portal to all federal, state and local government web resources and services.